Time;durP1;ratioP1;P1;durP2;ratioP2;P2;SDS_P1;SDS_P2;PMS_P1;PMS_P2;Temp;Humidity;BMP_temperature;BMP_pressure;BME280_temperature;BME280_humidity;BME280_pressure;Samples;Min_cycle;Max_cycle;Signal;HPM_P1;HPM_P2
2023/11/05 00:01:09;;;;;;;;;31.33;29.67;;;;;-143.90;100.00;74140.72;4964678;28;102228;-77
2023/11/05 00:03:36;;;;;;;;;40.00;28.00;;;;;-143.90;100.00;74144.84;4973745;28;102316;-75
2023/11/05 00:06:03;;;;;;;;;37.50;31.00;;;;;-143.90;100.00;74130.38;4974130;27;103977;-75
2023/11/05 00:08:30;;;;;;;;;49.67;43.00;;;;;-143.90;100.00;74132.44;4961584;27;102325;-75
2023/11/05 00:10:57;;;;;;;;;40.00;34.67;;;;;-143.90;100.00;74109.72;4965213;28;102436;-75
2023/11/05 00:13:23;;;;;;;;;35.50;27.75;;;;;-143.90;100.00;74097.31;4965467;28;102227;-76
2023/11/05 00:15:54;;;;;;;;;19.50;17.25;;;;;-143.90;100.00;74080.78;4961831;28;104052;-75
2023/11/05 00:18:21;;;;;;;;;16.75;15.25;;;;;-143.90;100.00;74072.50;4972073;28;103731;-76
2023/11/05 00:20:48;;;;;;;;;14.25;10.50;;;;;-143.90;100.00;74058.06;4977395;27;102098;-76
2023/11/05 00:23:15;;;;;;;;;9.75;9.50;;;;;-143.90;100.00;74047.72;4967864;28;102468;-76
2023/11/05 00:25:41;;;;;;;;;10.00;8.00;;;;;-143.90;100.00;74027.03;4962834;28;104025;-76
2023/11/05 00:28:08;;;;;;;;;12.50;6.75;;;;;-143.90;100.00;74016.72;4982274;28;101960;-75
2023/11/05 00:30:35;;;;;;;;;11.00;7.00;;;;;-143.90;100.00;74002.25;4966455;28;102341;-76
2023/11/05 00:33:02;;;;;;;;;9.50;7.75;;;;;-143.90;100.00;74002.25;4975441;27;102236;-74
2023/11/05 00:35:30;;;;;;;;;5.75;5.25;;;;;-143.90;100.00;73985.72;4956674;28;104070;-75
2023/11/05 00:37:56;;;;;;;;;5.75;5.00;;;;;-143.90;100.00;73969.19;4969713;28;102394;-75
2023/11/05 00:40:23;;;;;;;;;4.50;4.50;;;;;-143.90;100.00;73965.03;4977105;28;102161;-75
2023/11/05 00:42:50;;;;;;;;;2.50;2.50;;;;;-143.90;100.00;73969.19;4966638;28;102226;-76
2023/11/05 00:45:16;;;;;;;;;10.00;7.00;;;;;-143.90;100.00;73962.97;4965185;28;104323;-75
2023/11/05 00:47:43;;;;;;;;;11.00;9.00;;;;;-143.90;100.00;73948.50;4960073;28;102714;-75
2023/11/05 00:50:10;;;;;;;;;10.00;6.50;;;;;-143.90;100.00;73940.25;4961530;28;102320;-76
2023/11/05 00:52:36;;;;;;;;;8.00;6.00;;;;;-143.90;100.00;73934.03;4972437;27;102535;-76
2023/11/05 00:55:03;;;;;;;;;8.00;7.00;;;;;-143.90;100.00;73917.50;4968270;27;104162;-76
2023/11/05 00:57:30;;;;;;;;;5.00;3.75;;;;;-143.90;100.00;73915.44;4962628;28;104723;-76
2023/11/05 00:59:58;;;;;;;;;4.50;3.00;;;;;-143.90;100.00;73903.03;4971411;28;102011;-76
2023/11/05 01:02:24;;;;;;;;;4.50;4.50;;;;;-143.90;100.00;73886.50;4959130;28;102630;-75
2023/11/05 01:04:51;;;;;;;;;7.25;7.00;;;;;-143.90;100.00;73892.69;4974408;28;104008;-76
2023/11/05 01:07:18;;;;;;;;;6.00;5.75;;;;;-143.90;100.00;73872.03;4972602;28;102178;-76
2023/11/05 01:09:45;;;;;;;;;6.25;6.25;;;;;-143.90;100.00;73878.25;4978436;28;101878;-76
2023/11/05 01:12:11;;;;;;;;;5.00;2.75;;;;;-143.90;100.00;73867.91;4975424;28;102074;-76
2023/11/05 01:14:38;;;;;;;;;4.25;4.25;;;;;-143.90;100.00;73863.78;4972819;28;108758;-76
2023/11/05 01:17:04;;;;;;;;;3.00;3.00;;;;;-143.90;100.00;73857.56;4965121;28;102437;-76
2023/11/05 01:19:31;;;;;;;;;3.00;3.00;;;;;-143.90;100.00;73855.50;4963766;27;102824;-76
2023/11/05 01:21:58;;;;;;;;;4.50;4.00;;;;;-143.90;100.00;73845.16;4982290;27;103051;-76
2023/11/05 01:24:25;;;;;;;;;3.25;2.75;;;;;-143.90;100.00;73849.31;4971747;27;104900;-76
2023/11/05 01:26:51;;;;;;;;;3.75;3.75;;;;;-143.90;100.00;73836.91;4972185;28;104910;-76
2023/11/05 01:29:18;;;;;;;;;3.00;3.00;;;;;-143.90;100.00;73838.97;4971802;28;101965;-76
2023/11/05 01:31:45;;;;;;;;;2.50;2.50;;;;;-143.90;100.00;73828.63;4984132;27;102666;-77
2023/11/05 01:34:11;;;;;;;;;5.25;5.25;;;;;-143.90;99.77;73824.50;4971194;27;104212;-76
2023/11/05 01:36:39;;;;;;;;;3.25;3.00;;;;;-143.90;99.91;73814.16;4966107;27;102697;-76
2023/11/05 01:39:06;;;;;;;;;7.25;4.00;;;;;-143.90;99.18;73805.91;4975356;28;102992;-77
2023/11/05 01:41:33;;;;;;;;;7.75;5.50;;;;;-143.90;99.25;73801.78;4973781;28;102285;-76
2023/11/05 01:44:00;;;;;;;;;6.00;4.00;;;;;-143.90;99.43;73795.56;4969250;28;104486;-76
2023/11/05 01:46:27;;;;;;;;;8.50;8.50;;;;;-143.90;99.00;73783.16;4961620;28;102537;-76
2023/11/05 01:48:57;;;;;;;;;11.50;10.00;;;;;-143.90;98.55;73774.91;4964389;28;102392;-75
2023/11/05 01:51:25;;;;;;;;;12.00;9.00;;;;;-143.90;98.81;73776.97;4968959;27;102518;-75
2023/11/05 01:53:53;;;;;;;;;8.50;6.50;;;;;-143.90;98.86;73766.63;4964513;27;104259;-75
2023/11/05 01:56:23;;;;;;;;;11.25;9.00;;;;;-143.90;98.69;73754.25;4969889;28;102008;-75
2023/11/05 01:58:51;;;;;;;;;12.00;8.50;;;;;-143.90;98.92;73748.03;4969575;27;102060;-76
2023/11/05 02:01:18;;;;;;;;;8.75;8.00;;;;;-143.90;98.41;73743.91;4974195;28;102559;-75
2023/11/05 02:03:46;;;;;;;;;7.00;4.00;;;;;-143.90;98.69;73739.78;4960284;27;104027;-75
2023/11/05 02:06:13;;;;;;;;;11.00;7.00;;;;;-143.90;98.98;73731.50;4974546;28;102467;-77
2023/11/05 02:08:40;;;;;;;;;6.00;6.00;;;;;-143.90;98.75;73717.03;4984169;27;104202;-75
2023/11/05 02:11:08;;;;;;;;;6.00;3.00;;;;;-143.90;98.01;73717.03;4976489;27;103216;-75
2023/11/05 02:13:51;;;;;;;;;6.00;6.00;;;;;-143.90;98.99;73721.16;4976363;27;103741;-74
2023/11/05 02:16:20;;;;;;;;;1.00;0.00;;;;;-143.90;99.41;73717.03;4977792;27;101998;-75
2023/11/05 02:18:47;;;;;;;;;2.00;2.00;;;;;-143.90;98.92;73714.97;4975844;27;102027;-75
2023/11/05 02:21:41;;;;;;;;;3.00;3.00;;;;;-143.90;99.17;73710.84;4986416;27;104284;-75
2023/11/05 02:24:07;;;;;;;;;1.25;1.25;;;;;-143.90;99.18;73704.63;4986704;28;104044;-75
2023/11/05 02:26:34;;;;;;;;;2.00;2.00;;;;;-143.90;99.28;73694.31;4977085;27;102389;-75
2023/11/05 02:29:00;;;;;;;;;4.00;2.25;;;;;-143.90;99.07;73700.50;4987391;28;103534;-75
2023/11/05 02:31:27;;;;;;;;;2.25;2.25;;;;;-143.90;99.22;73704.63;4972645;28;102526;-75
2023/11/05 02:33:54;;;;;;;;;2.00;2.00;;;;;-143.90;99.72;73708.78;4983845;27;104085;-75
2023/11/05 02:36:21;;;;;;;;;2.25;2.00;;;;;-143.90;99.08;73712.91;4978956;27;102436;-75
2023/11/05 02:38:48;;;;;;;;;2.75;2.25;;;;;-143.90;99.21;73719.09;4985579;28;102320;-75
2023/11/05 02:41:15;;;;;;;;;2.00;2.00;;;;;-143.90;99.57;73714.97;4980625;27;104379;-75
2023/11/05 02:43:42;;;;;;;;;3.50;2.00;;;;;-143.90;98.58;73717.03;4977310;27;104105;-76
2023/11/05 02:46:08;;;;;;;;;3.25;3.00;;;;;-143.90;99.14;73712.91;4968791;27;102195;-76
2023/11/05 02:48:35;;;;;;;;;3.00;2.00;;;;;-143.90;98.89;73708.78;4977633;27;102139;-76
2023/11/05 02:51:02;;;;;;;;;3.75;2.00;;;;;-143.90;99.28;73704.63;4975553;27;104064;-76
2023/11/05 02:53:29;;;;;;;;;2.50;2.00;;;;;-143.90;100.00;73712.91;4969501;28;104124;-76
2023/11/05 02:55:55;;;;;;;;;3.00;3.00;;;;;-143.90;100.00;73704.63;4979807;27;102525;-76
2023/11/05 02:58:22;;;;;;;;;4.00;2.50;;;;;-143.90;100.00;73714.97;4973994;28;103066;-76
2023/11/05 03:00:49;;;;;;;;;12.25;11.50;;;;;-143.90;100.00;73723.22;4979231;28;102841;-76
2023/11/05 03:03:15;;;;;;;;;29.00;21.00;;;;;-143.90;100.00;73745.97;4970496;28;105269;-76
2023/11/05 03:05:43;;;;;;;;;28.50;20.00;;;;;-143.90;100.00;73754.25;4980332;28;103035;-76
2023/11/05 03:08:11;;;;;;;;;33.25;30.00;;;;;-143.90;100.00;73781.09;4980281;27;103216;-76
2023/11/05 03:10:38;;;;;;;;;22.75;21.50;;;;;-143.90;100.00;73774.91;4985840;28;102846;-76
2023/11/05 03:13:06;;;;;;;;;25.25;21.25;;;;;-143.90;100.00;73770.78;4977247;28;104078;-76
2023/11/05 03:15:33;;;;;;;;;22.25;20.25;;;;;-143.90;100.00;73781.09;4973331;27;104875;-76
2023/11/05 03:18:00;;;;;;;;;24.75;21.50;;;;;-143.90;100.00;73774.91;4983300;27;102496;-76
2023/11/05 03:20:26;;;;;;;;;18.75;17.25;;;;;-143.90;100.00;73766.63;4980655;28;102429;-76
2023/11/05 03:22:53;;;;;;;;;17.75;14.75;;;;;-143.90;100.00;73764.56;4978136;27;104272;-76
2023/11/05 03:25:20;;;;;;;;;10.75;10.75;;;;;-143.90;100.00;73750.09;4972353;28;102348;-76
2023/11/05 03:27:46;;;;;;;;;17.75;14.00;;;;;-143.90;100.00;73723.22;4973263;27;101961;-75
2023/11/05 03:30:13;;;;;;;;;14.00;9.50;;;;;-143.90;100.00;73739.78;4974554;27;104036;-76
2023/11/05 03:32:40;;;;;;;;;8.75;8.50;;;;;-143.90;100.00;73737.69;4982499;28;104114;-76
2023/11/05 03:35:09;;;;;;;;;10.25;8.00;;;;;-143.90;100.00;73741.84;4978969;28;103257;-75
2023/11/05 03:37:36;;;;;;;;;6.50;6.00;;;;;-143.90;100.00;73745.97;4980028;27;102035;-75
2023/11/05 03:40:04;;;;;;;;;4.75;3.75;;;;;-143.90;100.00;73731.50;4985860;27;104188;-75
2023/11/05 03:42:30;;;;;;;;;4.00;3.75;;;;;-143.90;100.00;73727.38;4980042;27;103992;-75
2023/11/05 03:44:57;;;;;;;;;4.00;4.00;;;;;-143.90;100.00;73725.31;4969259;28;102104;-75
2023/11/05 03:47:25;;;;;;;;;3.50;2.75;;;;;-143.90;100.00;73717.03;4981690;28;102513;-76
2023/11/05 03:49:53;;;;;;;;;4.00;2.75;;;;;-143.90;100.00;73708.78;4980822;27;102211;-76
2023/11/05 03:52:20;;;;;;;;;1.00;1.00;;;;;-143.90;100.00;73704.63;4969048;28;104220;-76
2023/11/05 03:54:47;;;;;;;;;3.25;2.50;;;;;-143.90;100.00;73700.50;4962653;28;102386;-76
2023/11/05 03:57:14;;;;;;;;;6.50;4.50;;;;;-143.90;100.00;73700.50;4974130;28;102183;-76
2023/11/05 03:59:40;;;;;;;;;2.25;2.25;;;;;-143.90;100.00;73690.16;4987362;28;102213;-76
2023/11/05 04:02:07;;;;;;;;;3.00;3.00;;;;;-143.90;100.00;73679.84;4976083;28;104028;-76
2023/11/05 04:04:33;;;;;;;;;3.50;3.50;;;;;-143.90;100.00;73675.69;4971708;28;102325;-76
2023/11/05 04:07:04;;;;;;;;;8.50;7.25;;;;;-143.90;100.00;73673.63;4967626;27;102196;-76
2023/11/05 04:09:31;;;;;;;;;8.25;7.75;;;;;-143.90;100.00;73677.78;4977442;27;102165;-76
2023/11/05 04:11:59;;;;;;;;;9.00;7.00;;;;;-143.90;100.00;73671.56;4975857;28;104980;-76
2023/11/05 04:14:26;;;;;;;;;6.25;6.00;;;;;-143.90;100.00;73667.44;4984418;28;102371;-76
2023/11/05 04:16:53;;;;;;;;;9.25;8.50;;;;;-143.90;100.00;73675.69;4968495;27;102106;-76
2023/11/05 04:19:20;;;;;;;;;12.25;7.75;;;;;-143.90;100.00;73675.69;4969201;28;102994;-76
2023/11/05 04:21:47;;;;;;;;;8.75;7.50;;;;;-143.90;100.00;73688.09;4979329;27;104178;-76
2023/11/05 04:24:13;;;;;;;;;10.75;9.00;;;;;-143.90;100.00;73696.38;4962100;28;102432;-76
2023/11/05 04:26:40;;;;;;;;;14.25;13.00;;;;;-143.90;100.00;73704.63;4987479;28;104254;-76
2023/11/05 04:29:07;;;;;;;;;14.50;14.25;;;;;-143.90;100.00;73706.69;4970301;28;102615;-76
2023/11/05 04:31:34;;;;;;;;;10.00;8.50;;;;;-143.90;100.00;73704.63;4971922;27;103731;-76
2023/11/05 04:34:01;;;;;;;;;14.75;11.50;;;;;-143.90;100.00;73700.50;4981245;28;102332;-76
2023/11/05 04:36:28;;;;;;;;;13.75;11.50;;;;;-143.90;100.00;73706.69;4988546;27;102528;-76
2023/11/05 04:38:54;;;;;;;;;12.25;11.75;;;;;-143.90;100.00;73698.44;4979037;28;102520;-76
2023/11/05 04:41:22;;;;;;;;;4.00;3.00;;;;;-143.90;100.00;73704.63;4978046;28;104029;-76
2023/11/05 04:43:49;;;;;;;;;18.50;16.50;;;;;-143.90;100.00;73696.38;4973300;28;102842;-75
2023/11/05 04:46:15;;;;;;;;;16.75;13.25;;;;;-143.90;100.00;73688.09;4981917;27;102262;-75
2023/11/05 04:48:42;;;;;;;;;14.25;12.00;;;;;-143.90;100.00;73688.09;4984562;27;102079;-75
2023/11/05 04:51:09;;;;;;;;;8.25;7.50;;;;;-143.90;100.00;73675.69;4978723;28;108554;-75
2023/11/05 04:53:36;;;;;;;;;7.00;6.00;;;;;-143.90;100.00;73655.03;4978379;28;102117;-76
2023/11/05 04:56:03;;;;;;;;;7.00;6.00;;;;;-143.90;100.00;73646.78;4984300;28;102475;-76
2023/11/05 04:58:30;;;;;;;;;7.50;6.00;;;;;-143.90;100.00;73628.16;4974687;28;101985;-76
2023/11/05 05:00:57;;;;;;;;;7.00;4.00;;;;;-143.90;100.00;73607.50;4970825;28;104294;-76
2023/11/05 05:03:23;;;;;;;;;4.50;4.00;;;;;-143.90;100.00;73593.03;4987636;28;102720;-76
2023/11/05 05:05:50;;;;;;;;;3.00;2.75;;;;;-143.90;100.00;73576.50;4981754;27;102413;-76
2023/11/05 05:08:17;;;;;;;;;3.75;2.00;;;;;-143.90;100.00;73566.16;4962359;27;103887;-76
2023/11/05 05:10:44;;;;;;;;;3.25;2.00;;;;;-143.90;100.00;73551.72;4975633;28;104041;-75
2023/11/05 05:13:10;;;;;;;;;1.25;1.00;;;;;-143.90;100.00;73545.50;4981952;27;102476;-76
2023/11/05 05:15:38;;;;;;;;;3.25;2.50;;;;;-143.90;100.00;73539.31;4976018;28;104389;-75
2023/11/05 05:18:04;;;;;;;;;4.00;2.75;;;;;-143.90;100.00;73528.97;4972770;27;102311;-76
2023/11/05 05:20:31;;;;;;;;;3.75;3.00;;;;;-143.90;100.00;73522.78;4984576;28;104049;-76
2023/11/05 05:22:57;;;;;;;;;2.75;2.00;;;;;-143.90;100.00;73506.25;4968742;28;102506;-77
2023/11/05 05:25:24;;;;;;;;;3.50;2.00;;;;;-143.90;100.00;73497.97;4970922;27;102082;-76
2023/11/05 05:27:51;;;;;;;;;2.50;1.25;;;;;-143.90;100.00;73500.03;4986295;28;102273;-75
2023/11/05 05:30:18;;;;;;;;;2.25;1.00;;;;;-143.90;100.00;73500.03;4979293;28;104024;-75
2023/11/05 05:32:45;;;;;;;;;2.00;1.75;;;;;-143.90;100.00;73493.84;4976348;27;102453;-75
2023/11/05 05:35:12;;;;;;;;;1.75;1.50;;;;;-143.90;100.00;73506.25;4984032;27;102370;-75
2023/11/05 05:37:39;;;;;;;;;2.75;2.00;;;;;-143.90;100.00;73502.09;4983238;27;102073;-76
2023/11/05 05:40:06;;;;;;;;;2.00;2.00;;;;;-143.90;100.00;73493.84;4971553;28;104505;-76
2023/11/05 05:42:33;;;;;;;;;2.00;2.00;;;;;-143.90;100.00;73497.97;4972694;27;104503;-76
2023/11/05 05:45:00;;;;;;;;;1.00;1.00;;;;;-143.90;100.00;73485.56;4969164;27;102917;-76
2023/11/05 05:47:27;;;;;;;;;2.75;2.00;;;;;-143.90;100.00;73493.84;4966118;27;102338;-76
2023/11/05 05:49:53;;;;;;;;;3.00;3.00;;;;;-143.90;100.00;73493.84;4979241;27;104351;-76
2023/11/05 05:52:20;;;;;;;;;2.00;2.00;;;;;-143.90;100.00;73493.84;4972229;28;102323;-76
2023/11/05 05:54:47;;;;;;;;;3.00;2.00;;;;;-143.90;100.00;73502.09;4976763;27;103760;-76
2023/11/05 05:57:13;;;;;;;;;1.00;1.00;;;;;-143.90;100.00;73493.84;4978879;27;106144;-76
2023/11/05 05:59:40;;;;;;;;;2.75;2.00;;;;;-143.90;100.00;73497.97;4983022;28;108911;-76
2023/11/05 06:02:07;;;;;;;;;4.00;2.00;;;;;-143.90;100.00;73497.97;4972540;27;102311;-76
2023/11/05 06:04:35;;;;;;;;;2.75;2.00;;;;;-143.90;100.00;73493.84;4973366;28;102403;-76
2023/11/05 06:07:02;;;;;;;;;1.50;1.00;;;;;-143.90;100.00;73493.84;4993317;27;102384;-76
2023/11/05 06:09:29;;;;;;;;;2.50;2.50;;;;;-143.90;100.00;73493.84;4979123;28;104060;-76
2023/11/05 06:11:56;;;;;;;;;2.00;2.00;;;;;-143.90;100.00;73491.78;4981605;28;103064;-76
2023/11/05 06:14:23;;;;;;;;;2.00;2.00;;;;;-143.90;100.00;73485.56;4979466;28;102816;-76
2023/11/05 06:17:05;;;;;;;;;4.00;3.50;;;;;-143.90;100.00;73483.50;4974100;28;102506;-76
2023/11/05 06:19:32;;;;;;;;;3.00;3.00;;;;;-143.90;100.00;73493.84;4982236;27;104180;-76
2023/11/05 06:21:59;;;;;;;;;2.75;2.50;;;;;-143.90;100.00;73491.78;4982934;27;102132;-76
2023/11/05 06:24:26;;;;;;;;;3.00;3.00;;;;;-143.90;100.00;73485.56;4976253;28;102176;-76
2023/11/05 06:26:53;;;;;;;;;5.50;3.75;;;;;-143.90;100.00;73483.50;4987150;27;102172;-75
2023/11/05 06:29:19;;;;;;;;;3.75;3.00;;;;;-143.90;100.00;73481.44;4971011;27;104370;-75
2023/11/05 06:31:46;;;;;;;;;5.75;4.00;;;;;-143.90;100.00;73483.50;4966634;27;102338;-76
2023/11/05 06:34:12;;;;;;;;;3.00;3.00;;;;;-143.90;100.00;73481.44;4989342;27;102790;-76
2023/11/05 06:36:56;;;;;;;;;7.00;4.00;;;;;-143.90;100.00;73477.31;4977818;28;103840;-76
2023/11/05 06:39:22;;;;;;;;;4.00;3.00;;;;;-143.90;100.00;73469.03;4970476;28;108675;-77
2023/11/05 06:41:49;;;;;;;;;7.25;4.25;;;;;-143.90;100.00;73469.03;4974441;28;102755;-77
2023/11/05 06:44:16;;;;;;;;;3.00;0.00;;;;;-143.90;100.00;73462.84;4979734;28;102007;-77
2023/11/05 06:46:42;;;;;;;;;2.25;2.00;;;;;-143.90;100.00;73454.59;4972908;28;102571;-77
2023/11/05 06:49:09;;;;;;;;;1.00;1.00;;;;;-143.90;100.00;73454.59;4972757;28;109487;-77
2023/11/05 06:51:36;;;;;;;;;6.25;5.00;;;;;-143.90;100.00;73452.50;4974290;27;102494;-77
2023/11/05 06:54:03;;;;;;;;;7.50;5.00;;;;;-143.90;100.00;73456.66;4971983;28;102725;-77
2023/11/05 06:56:29;;;;;;;;;6.50;4.00;;;;;-143.90;100.00;73448.38;4965893;28;104738;-77
2023/11/05 06:58:56;;;;;;;;;4.00;3.25;;;;;-143.90;100.00;73433.91;4967679;28;104132;-77
2023/11/05 07:01:22;;;;;;;;;3.75;2.25;;;;;-143.90;100.00;73425.66;4975635;27;102505;-77
2023/11/05 07:03:49;;;;;;;;;8.50;6.00;;;;;-143.90;100.00;73427.72;4979792;27;102105;-77
2023/11/05 07:06:16;;;;;;;;;5.00;4.50;;;;;-143.90;100.00;73423.59;4994677;28;102087;-77
2023/11/05 07:08:43;;;;;;;;;11.75;10.25;;;;;-143.90;100.00;73427.72;4969917;28;103745;-77
2023/11/05 07:11:09;;;;;;;;;12.00;9.75;;;;;-143.90;100.00;73427.72;4980589;28;102308;-76
2023/11/05 07:13:36;;;;;;;;;11.00;9.75;;;;;-143.90;100.00;73419.44;4985357;27;102500;-77
2023/11/05 07:16:03;;;;;;;;;15.25;10.00;;;;;-143.90;100.00;73425.66;4982502;27;102329;-77
2023/11/05 07:18:30;;;;;;;;;18.00;17.25;;;;;-143.90;100.00;73442.19;4967886;28;104121;-77
2023/11/05 07:20:57;;;;;;;;;18.75;16.50;;;;;-143.90;100.00;73444.25;4974204;27;102588;-77
2023/11/05 07:23:24;;;;;;;;;15.25;14.50;;;;;-143.90;100.00;73448.38;4968575;27;102112;-77
2023/11/05 07:25:50;;;;;;;;;18.25;14.00;;;;;-143.90;100.00;73452.50;4985785;28;102187;-77
2023/11/05 07:28:17;;;;;;;;;18.00;14.50;;;;;-143.90;100.00;73444.25;4979955;28;104460;-77
2023/11/05 07:30:44;;;;;;;;;12.50;11.50;;;;;-143.90;100.00;73446.31;4981972;28;102076;-77
2023/11/05 07:33:12;;;;;;;;;15.00;13.00;;;;;-143.90;100.00;73442.19;4965082;28;102326;-77
2023/11/05 07:35:39;;;;;;;;;10.00;10.00;;;;;-143.90;100.00;73433.91;4986369;28;103846;-77
2023/11/05 07:38:08;;;;;;;;;15.25;14.00;;;;;-143.90;100.00;73433.91;4989611;27;103984;-77
2023/11/05 07:40:35;;;;;;;;;16.25;14.50;;;;;-143.90;100.00;73438.03;4981512;27;102435;-77
2023/11/05 07:43:02;;;;;;;;;14.50;13.00;;;;;-143.90;100.00;73427.72;4983457;27;102282;-77
2023/11/05 07:45:28;;;;;;;;;8.75;7.50;;;;;-143.90;100.00;73415.31;4984064;27;102346;-77
2023/11/05 07:47:55;;;;;;;;;8.00;7.50;;;;;-143.90;100.00;73411.19;4986125;27;104082;-77
2023/11/05 07:50:23;;;;;;;;;7.75;6.00;;;;;-143.90;100.00;73407.06;4987357;27;102267;-77
2023/11/05 07:52:50;;;;;;;;;8.00;6.00;;;;;-143.90;100.00;73400.84;4990532;28;102268;-77
2023/11/05 07:55:16;;;;;;;;;8.75;7.25;;;;;-143.90;100.00;73396.72;4979968;28;102337;-77
2023/11/05 07:57:43;;;;;;;;;7.50;4.25;;;;;-143.90;100.00;73394.66;4993741;28;104206;-77
2023/11/05 08:00:15;;;;;;;;;7.00;4.00;;;;;-143.90;100.00;73390.53;4974301;28;103316;-76
2023/11/05 08:02:42;;;;;;;;;7.00;3.50;;;;;-143.90;100.00;73382.25;4986663;28;102262;-76
2023/11/05 08:05:09;;;;;;;;;4.50;2.75;;;;;-143.90;100.00;73378.13;4982638;28;102530;-77
2023/11/05 08:07:36;;;;;;;;;2.00;2.00;;;;;-143.90;100.00;73374.00;4987357;28;104199;-77
2023/11/05 08:10:06;;;;;;;;;2.00;2.00;;;;;-143.90;100.00;73367.78;4975720;28;101918;-77
2023/11/05 08:12:33;;;;;;;;;2.25;1.50;;;;;-143.90;100.00;73357.47;4982436;27;102324;-77
2023/11/05 08:15:00;;;;;;;;;0.25;0.00;;;;;-143.90;100.00;73353.31;4972722;27;102348;-76
2023/11/05 08:17:29;;;;;;;;;2.25;2.00;;;;;-143.90;100.00;73355.38;4978299;27;103461;-76
2023/11/05 08:19:56;;;;;;;;;1.00;1.00;;;;;-143.90;100.00;73338.84;4971063;28;102204;-76
2023/11/05 08:22:23;;;;;;;;;1.00;1.00;;;;;-143.90;100.00;73332.66;4972828;27;102494;-76
2023/11/05 08:24:51;;;;;;;;;1.00;1.00;;;;;-143.90;100.00;73336.78;4978546;27;102090;-75
2023/11/05 08:27:18;;;;;;;;;0.00;0.00;;;;;-143.90;100.00;73332.66;4973879;28;104005;-76
2023/11/05 08:29:44;;;;;;;;;1.25;1.25;;;;;-143.90;100.00;73332.66;4966075;27;102222;-75
2023/11/05 08:32:13;;;;;;;;;2.00;1.00;;;;;-143.90;100.00;73338.84;4964154;28;102430;-76
2023/11/05 08:34:41;;;;;;;;;2.00;2.00;;;;;-143.90;100.00;73338.84;4964438;27;102121;-75
2023/11/05 08:37:07;;;;;;;;;3.50;2.00;;;;;-143.90;100.00;73338.84;4982560;27;103321;-77
2023/11/05 08:39:34;;;;;;;;;3.00;3.00;;;;;-143.90;100.00;73334.72;4974059;27;102046;-76
2023/11/05 08:42:02;;;;;;;;;2.00;1.00;;;;;-143.90;100.00;73336.78;4977338;28;102421;-77
2023/11/05 08:44:28;;;;;;;;;2.75;2.00;;;;;-143.90;100.00;73338.84;4980882;27;102435;-77
2023/11/05 08:46:55;;;;;;;;;4.25;3.00;;;;;-143.90;100.00;73345.06;4976871;27;104181;-77
2023/11/05 08:49:24;;;;;;;;;3.75;3.00;;;;;-143.90;100.00;73347.13;4989618;27;102286;-78
2023/11/05 08:51:52;;;;;;;;;2.75;2.25;;;;;-143.90;100.00;73343.00;4983531;27;102138;-77
2023/11/05 08:54:20;;;;;;;;;4.25;3.50;;;;;-143.90;100.00;73345.06;4980050;27;102436;-76
2023/11/05 08:56:46;;;;;;;;;3.50;3.00;;;;;-143.90;100.00;73338.84;4976155;28;104010;-77
2023/11/05 08:59:13;;;;;;;;;4.00;3.25;;;;;-143.90;100.00;73336.78;4980519;27;102324;-77
2023/11/05 09:01:40;;;;;;;;;6.25;4.50;;;;;-143.90;100.00;73340.94;4968137;27;102238;-76
2023/11/05 09:04:09;;;;;;;;;6.00;4.00;;;;;-143.90;100.00;73340.94;4974985;27;102552;-76
2023/11/05 09:06:35;;;;;;;;;3.00;3.00;;;;;-143.90;100.00;73332.66;4971467;28;104061;-77
2023/11/05 09:09:05;;;;;;;;;4.00;3.00;;;;;-143.90;100.00;73326.47;4954399;27;103243;-76
2023/11/05 09:11:33;;;;;;;;;4.00;3.00;;;;;-143.90;100.00;73328.53;4973520;27;102336;-76
2023/11/05 09:14:00;;;;;;;;;3.00;2.00;;;;;-143.90;100.00;73324.41;4974097;27;102076;-77
2023/11/05 09:16:27;;;;;;;;;5.75;3.25;;;;;-143.90;100.00;73316.13;4985876;27;104183;-77
2023/11/05 09:18:53;;;;;;;;;4.00;4.00;;;;;-143.90;100.00;73318.19;4973724;27;102254;-77
2023/11/05 09:21:20;;;;;;;;;4.25;4.25;;;;;-143.90;100.00;73316.13;4979024;27;102454;-77
2023/11/05 09:23:47;;;;;;;;;5.25;5.25;;;;;-143.90;100.00;73324.41;4973645;27;102561;-77
2023/11/05 09:26:14;;;;;;;;;4.25;3.75;;;;;-143.90;100.00;73316.13;4976974;27;103610;-77
2023/11/05 09:28:41;;;;;;;;;7.00;5.50;;;;;-143.90;100.00;73312.00;4969622;27;102407;-77
2023/11/05 09:31:08;;;;;;;;;7.50;6.00;;;;;-143.90;100.00;73303.72;4970594;28;102115;-77
2023/11/05 09:33:34;;;;;;;;;9.75;8.00;;;;;-143.90;100.00;73318.19;4972370;27;103092;-77
2023/11/05 09:36:01;;;;;;;;;9.75;8.75;;;;;-143.90;100.00;73316.13;4969225;27;104632;-77
2023/11/05 09:38:28;;;;;;;;;10.25;9.50;;;;;-143.90;100.00;73309.94;4976592;27;102189;-77
2023/11/05 09:40:54;;;;;;;;;12.75;9.50;;;;;-143.90;100.00;73299.59;4969098;27;102298;-77
2023/11/05 09:43:21;;;;;;;;;11.00;9.75;;;;;-143.90;100.00;73287.19;4971789;27;102478;-77
2023/11/05 09:45:52;;;;;;;;;8.50;7.00;;;;;-143.90;100.00;73274.81;4976931;27;104126;-77
2023/11/05 09:48:19;;;;;;;;;7.50;7.50;;;;;-143.90;100.00;73274.81;4975148;27;104570;-76
2023/11/05 09:50:45;;;;;;;;;7.25;7.25;;;;;-143.90;100.00;73270.66;4975362;27;103974;-77
2023/11/05 09:53:14;;;;;;;;;9.75;9.25;;;;;-143.90;100.00;73252.06;4961051;27;104862;-77
2023/11/05 09:55:44;;;;;;;;;5.75;5.25;;;;;-143.90;100.00;73241.75;4975864;27;108980;-77
2023/11/05 09:58:13;;;;;;;;;7.00;5.25;;;;;-143.90;100.00;73235.53;4964408;27;103710;-77
2023/11/05 10:00:40;;;;;;;;;8.50;7.00;;;;;-143.90;100.00;73231.41;4975446;27;101951;-77
2023/11/05 10:03:08;;;;;;;;;7.75;7.50;;;;;-143.90;100.00;73216.94;4966172;28;102277;-77
2023/11/05 10:05:39;;;;;;;;;11.00;10.00;;;;;-143.90;100.00;73227.28;4970232;28;103963;-77
2023/11/05 10:08:06;;;;;;;;;11.00;8.00;;;;;-143.90;100.00;73210.75;4978864;27;103775;-77
2023/11/05 10:10:34;;;;;;;;;14.25;13.50;;;;;-143.90;100.00;73221.06;4980719;27;102283;-77
2023/11/05 10:13:04;;;;;;;;;36.25;32.75;;;;;-143.90;100.00;73221.06;4977893;27;102174;-77
2023/11/05 10:15:36;;;;;;;;;32.25;29.50;;;;;-143.90;100.00;73219.00;4977763;27;104069;-77
2023/11/05 10:18:04;;;;;;;;;25.50;20.00;;;;;-143.90;100.00;73235.53;4977340;27;102065;-76
2023/11/05 10:20:31;;;;;;;;;19.00;15.25;;;;;-143.90;100.00;73223.13;4980925;27;107923;-76
2023/11/05 10:23:07;;;;;;;;;21.75;18.50;;;;;-143.90;100.00;73233.47;4973328;27;103521;-77
2023/11/05 10:25:36;;;;;;;;;16.00;14.00;;;;;-143.90;100.00;73225.19;4986543;27;104109;-76
2023/11/05 10:28:04;;;;;;;;;22.50;20.50;;;;;-143.90;100.00;73212.81;4979189;28;102216;-77
2023/11/05 10:30:32;;;;;;;;;15.50;15.50;;;;;-143.90;100.00;73212.81;4983234;27;102487;-78
2023/11/05 10:32:58;;;;;;;;;20.00;17.00;;;;;-143.90;100.00;73208.69;4981701;27;101978;-76
2023/11/05 10:35:27;;;;;;;;;25.50;23.50;;;;;-143.90;100.00;73202.47;4975667;27;103897;-76
2023/11/05 10:37:55;;;;;;;;;19.50;15.25;;;;;-143.90;100.00;73204.53;4969265;27;102220;-77
2023/11/05 10:40:23;;;;;;;;;21.00;19.50;;;;;-143.90;100.00;73198.34;4972478;27;102392;-77
2023/11/05 10:42:50;;;;;;;;;26.50;25.50;;;;;-143.90;100.00;73196.28;4973067;27;102260;-77
2023/11/05 10:45:19;;;;;;;;;16.75;16.00;;;;;-143.90;100.00;73183.88;4959961;27;104785;-77
2023/11/05 10:47:50;;;;;;;;;17.75;16.75;;;;;-143.90;100.00;73202.47;4977380;27;102839;-77
2023/11/05 10:50:31;;;;;;;;;26.75;24.00;;;;;-143.90;100.00;73196.28;4980802;27;103688;-76
2023/11/05 10:52:59;;;;;;;;;18.00;17.25;;;;;-143.90;100.00;73179.75;4980778;27;102539;-76
2023/11/05 10:55:37;;;;;;;;;18.00;14.50;;;;;-143.90;100.00;73163.22;4974170;27;104008;-76
2023/11/05 10:58:08;;;;;;;;;15.00;13.75;;;;;-143.90;100.00;73159.09;4977034;27;102307;-76